createdAt,value
2023-04-01T00:00:34.545Z,83.29
2023-04-01T00:03:38.499Z,83.20
2023-04-01T00:06:41.964Z,83.70
2023-04-01T00:09:45.025Z,83.83
2023-04-01T00:12:48.501Z,84.93
2023-04-01T00:15:51.675Z,84.23
2023-04-01T00:18:54.778Z,84.78
2023-04-01T00:21:58.392Z,85.58
2023-04-01T00:25:01.780Z,84.90
2023-04-01T00:28:04.881Z,82.36
2023-04-01T00:31:10.732Z,82.04
2023-04-01T00:34:13.779Z,80.75
2023-04-01T00:37:16.954Z,83.27
2023-04-01T00:40:29.211Z,82.45
2023-04-01T00:43:33.502Z,81.42
2023-04-01T00:46:37.930Z,83.16
2023-04-01T00:49:45.380Z,83.79
2023-04-01T00:52:48.999Z,83.33
2023-04-01T00:55:58.740Z,83.32
2023-04-01T00:59:09.389Z,83.59
2023-04-01T01:02:14.492Z,83.73
2023-04-01T01:05:20.138Z,84.18
2023-04-01T01:08:58.453Z,83.47
2023-04-01T01:12:27.335Z,82.18
2023-04-01T01:16:05.515Z,83.99
2023-04-01T01:19:21.585Z,82.17
2023-04-01T01:22:45.566Z,80.85
2023-04-01T01:26:10.583Z,81.60
2023-04-01T01:29:48.636Z,80.56
2023-04-01T01:33:24.158Z,80.95
2023-04-01T01:36:35.784Z,80.62
2023-04-01T01:39:44.084Z,79.94
2023-04-01T01:42:51.791Z,78.88
2023-04-01T01:46:02.688Z,79.18
2023-04-01T01:49:08.473Z,79.13
2023-04-01T01:52:13.591Z,79.50
2023-04-01T01:55:37.548Z,79.59
2023-04-01T01:58:48.649Z,79.21
2023-04-01T02:01:57.123Z,79.64
2023-04-01T02:05:00.865Z,80.00
2023-04-01T02:08:28.068Z,79.03
2023-04-01T02:11:36.590Z,79.56
2023-04-01T02:15:02.429Z,80.04
2023-04-01T02:18:06.423Z,80.60
2023-04-01T02:21:11.179Z,79.42
2023-04-01T02:24:17.048Z,80.26
2023-04-01T02:27:21.301Z,80.68
2023-04-01T02:30:26.748Z,80.39
2023-04-01T02:33:31.073Z,80.21
2023-04-01T02:36:37.230Z,79.57
2023-04-01T02:39:41.102Z,81.41
2023-04-01T02:42:44.818Z,81.45
2023-04-01T02:45:48.309Z,80.46
2023-04-01T02:48:51.791Z,81.43
2023-04-01T02:51:54.729Z,80.62
2023-04-01T02:54:59.058Z,81.54
2023-04-01T02:58:02.384Z,80.61
2023-04-01T03:01:07.035Z,80.34
2023-04-01T03:04:10.693Z,81.48
2023-04-01T03:07:14.429Z,80.09
2023-04-01T03:10:17.732Z,79.87
2023-04-01T03:13:21.253Z,80.09
2023-04-01T03:16:25.061Z,80.88
2023-04-01T03:19:28.650Z,81.11
2023-04-01T03:22:32.564Z,79.94
2023-04-01T03:25:35.925Z,80.71
2023-04-01T03:28:39.052Z,80.99
2023-04-01T03:31:42.218Z,80.99
2023-04-01T03:34:55.838Z,81.83
2023-04-01T03:37:59.022Z,81.62
2023-04-01T03:41:03.225Z,82.20
2023-04-01T03:44:07.573Z,82.05
2023-04-01T03:47:11.091Z,82.70
2023-04-01T03:50:14.392Z,82.75
2023-04-01T03:53:18.484Z,83.40
2023-04-01T03:56:23.832Z,83.06
2023-04-01T03:59:27.445Z,83.31
2023-04-01T04:02:30.857Z,83.43
2023-04-01T04:05:34.203Z,82.12
2023-04-01T04:08:37.906Z,82.50
2023-04-01T04:11:41.131Z,82.05
2023-04-01T04:14:44.566Z,81.48
2023-04-01T04:17:48.712Z,81.62
2023-04-01T04:20:52.362Z,82.77
2023-04-01T04:23:56.461Z,83.48
2023-04-01T04:27:01.263Z,82.47
2023-04-01T04:30:06.571Z,83.12
2023-04-01T04:33:10.553Z,83.42
2023-04-01T04:36:14.186Z,83.25
2023-04-01T04:39:17.837Z,83.96
2023-04-01T04:42:21.402Z,84.35
2023-04-01T04:45:24.972Z,84.09
2023-04-01T04:48:31.737Z,83.32
2023-04-01T04:55:00.569Z,84.30
2023-04-01T04:58:03.931Z,84.22
2023-04-01T05:01:12.571Z,84.11
2023-04-01T05:04:16.312Z,84.73
2023-04-01T05:07:19.687Z,84.48
2023-04-01T05:10:22.850Z,82.88
2023-04-01T05:13:26.193Z,82.27
2023-04-01T05:16:31.062Z,83.18
2023-04-01T05:19:35.963Z,81.56
2023-04-01T05:22:58.060Z,81.76
2023-04-01T05:26:09.545Z,81.34
2023-04-01T05:29:13.001Z,81.40
2023-04-01T05:32:16.995Z,80.60
2023-04-01T05:35:20.296Z,80.75
2023-04-01T05:38:23.682Z,79.79
2023-04-01T05:41:26.682Z,79.84
2023-04-01T05:44:30.025Z,80.11
2023-04-01T05:47:39.435Z,79.17
2023-04-01T05:50:43.252Z,79.09
2023-04-01T05:53:48.028Z,78.37
2023-04-01T05:56:51.292Z,78.30
2023-04-01T05:59:55.362Z,78.03
2023-04-01T06:03:01.824Z,75.50
2023-04-01T06:06:05.202Z,75.87
2023-04-01T06:09:20.128Z,76.65
2023-04-01T06:12:39.378Z,75.68
2023-04-01T06:15:58.285Z,75.32
2023-04-01T06:19:20.195Z,74.98
2023-04-01T06:22:39.807Z,75.91
2023-04-01T06:26:13.996Z,73.62
2023-04-01T06:29:30.905Z,73.15
2023-04-01T06:33:03.209Z,71.43
2023-04-01T06:36:38.089Z,70.53
2023-04-01T06:39:54.061Z,69.83
2023-04-01T06:43:09.628Z,69.46
2023-04-01T06:46:40.155Z,69.30
2023-04-01T06:50:11.937Z,67.58
2023-04-01T06:57:46.293Z,67.20
2023-04-01T07:01:28.597Z,65.24
2023-04-01T07:04:37.407Z,65.41
2023-04-01T07:07:47.024Z,66.07
2023-04-01T07:11:31.150Z,65.79
2023-04-01T07:15:13.069Z,63.07
2023-04-01T07:18:42.576Z,66.13
2023-04-01T07:21:53.289Z,63.00
2023-04-01T07:25:18.281Z,58.97
2023-04-01T07:28:32.094Z,58.46
2023-04-01T07:31:45.234Z,59.67
2023-04-01T07:35:22.910Z,58.72
2023-04-01T07:38:54.001Z,55.77
2023-04-01T07:42:14.757Z,57.33
2023-04-01T07:45:23.881Z,59.98
2023-04-01T07:48:28.269Z,55.63
2023-04-01T07:51:53.980Z,58.07
2023-04-01T07:55:41.317Z,57.24
2023-04-01T07:58:51.221Z,56.40
2023-04-01T08:02:30.209Z,56.94
2023-04-01T08:05:52.251Z,57.08
2023-04-01T08:09:15.235Z,55.21
2023-04-01T08:13:03.071Z,55.31
2023-04-01T08:16:29.820Z,54.89
2023-04-01T08:20:13.313Z,55.95
2023-04-01T08:23:38.555Z,55.01
2023-04-01T08:26:54.802Z,58.08
2023-04-01T08:30:23.156Z,56.49
2023-04-01T08:33:28.868Z,55.00
2023-04-01T08:37:05.875Z,54.56
2023-04-01T08:40:46.630Z,54.13
2023-04-01T08:44:16.034Z,53.04
2023-04-01T08:47:36.242Z,51.58
2023-04-01T08:50:56.008Z,51.82
2023-04-01T08:54:30.657Z,50.90
2023-04-01T08:57:35.868Z,50.24
2023-04-01T09:01:20.634Z,49.49
2023-04-01T09:05:05.314Z,49.63
2023-04-01T09:08:25.210Z,47.33
2023-04-01T09:12:06.301Z,46.39
2023-04-01T09:15:38.323Z,47.46
2023-04-01T09:19:12.617Z,48.26
2023-04-01T09:22:16.222Z,47.62
2023-04-01T09:25:41.463Z,47.48
2023-04-01T09:29:06.445Z,47.43
2023-04-01T09:32:41.799Z,46.99
2023-04-01T09:36:03.728Z,48.78
2023-04-01T09:39:27.372Z,48.35
2023-04-01T09:42:44.858Z,47.71
2023-04-01T09:46:35.893Z,48.26
2023-04-01T09:49:57.761Z,48.58
2023-04-01T09:53:27.070Z,48.44
2023-04-01T09:56:49.109Z,48.42
2023-04-01T09:59:58.820Z,47.79
2023-04-01T10:03:27.775Z,48.38
2023-04-01T10:10:33.774Z,48.61
2023-04-01T10:14:01.970Z,50.36
2023-04-01T10:17:33.411Z,47.52
2023-04-01T10:20:46.334Z,48.57
2023-04-01T10:24:01.593Z,48.58
2023-04-01T10:27:27.750Z,49.98
2023-04-01T10:30:45.482Z,51.04
2023-04-01T10:33:59.434Z,51.43
2023-04-01T10:37:41.380Z,49.26
2023-04-01T10:41:28.288Z,50.52
2023-04-01T10:45:48.427Z,50.11
2023-04-01T10:49:22.888Z,48.90
2023-04-01T10:53:08.302Z,49.35
2023-04-01T10:57:05.858Z,48.37
2023-04-01T11:01:01.610Z,48.48
2023-04-01T11:04:52.445Z,46.45
2023-04-01T11:08:17.044Z,47.16
2023-04-01T11:11:36.798Z,46.00
2023-04-01T11:15:19.851Z,46.64
2023-04-01T11:22:32.539Z,46.39
2023-04-01T11:26:01.659Z,44.60
2023-04-01T11:29:59.303Z,44.94
2023-04-01T11:33:12.943Z,43.82
2023-04-01T11:36:40.964Z,43.87
2023-04-01T11:40:12.474Z,43.51
2023-04-01T11:43:38.080Z,44.71
2023-04-01T11:47:37.984Z,46.39
2023-04-01T11:51:13.401Z,44.80
2023-04-01T11:54:28.422Z,44.03
2023-04-01T11:58:17.033Z,43.45
2023-04-01T12:01:47.900Z,42.29
2023-04-01T12:05:09.295Z,43.08
2023-04-01T12:08:48.165Z,41.69
2023-04-01T12:12:12.507Z,39.85
2023-04-01T12:15:35.587Z,40.43
2023-04-01T12:19:08.538Z,41.74
2023-04-01T12:22:39.718Z,41.29
2023-04-01T12:26:35.167Z,40.94
2023-04-01T12:29:56.781Z,40.60
2023-04-01T12:33:41.875Z,40.43
2023-04-01T12:37:07.330Z,38.44
2023-04-01T12:40:29.680Z,39.16
2023-04-01T12:44:02.386Z,36.78
2023-04-01T12:47:34.626Z,38.77
2023-04-01T12:50:56.163Z,36.28
2023-04-01T12:54:24.194Z,36.56
2023-04-01T12:57:45.844Z,37.02
2023-04-01T13:01:30.577Z,37.72
2023-04-01T13:04:48.547Z,38.68
2023-04-01T13:07:58.140Z,36.55
2023-04-01T13:11:24.259Z,37.33
2023-04-01T13:14:36.386Z,37.70
2023-04-01T13:17:55.362Z,38.28
2023-04-01T13:21:17.050Z,39.16
2023-04-01T13:25:01.685Z,40.08
2023-04-01T13:28:12.397Z,39.23
2023-04-01T13:31:37.934Z,39.88
2023-04-01T13:35:01.046Z,39.54
2023-04-01T13:38:19.373Z,40.31
2023-04-01T13:41:49.073Z,40.58
2023-04-01T13:45:10.373Z,40.16
2023-04-01T13:48:33.708Z,40.88
2023-04-01T13:52:12.415Z,37.51
2023-04-01T13:55:46.164Z,38.16
2023-04-01T13:59:16.883Z,37.58
2023-04-01T14:02:32.662Z,37.90
2023-04-01T14:06:04.903Z,37.73
2023-04-01T14:09:56.237Z,38.31
2023-04-01T14:13:11.347Z,37.94
2023-04-01T14:16:20.713Z,37.18
2023-04-01T14:20:05.535Z,37.04
2023-04-01T14:23:17.765Z,38.41
2023-04-01T14:27:11.862Z,36.75
2023-04-01T14:30:34.168Z,37.51
2023-04-01T14:33:43.203Z,36.81
2023-04-01T14:37:07.830Z,36.15
2023-04-01T14:40:20.403Z,37.64
2023-04-01T14:43:47.272Z,37.70
2023-04-01T14:50:47.040Z,37.94
2023-04-01T14:54:12.187Z,36.45
2023-04-01T14:57:25.096Z,36.09
2023-04-01T15:00:41.197Z,36.88
2023-04-01T15:08:06.411Z,37.43
2023-04-01T15:11:15.749Z,37.44
2023-04-01T15:14:27.569Z,36.78
2023-04-01T15:17:53.621Z,36.92
2023-04-01T15:21:20.008Z,37.52
2023-04-01T15:24:27.908Z,38.63
2023-04-01T15:27:59.958Z,38.63
2023-04-01T15:31:22.923Z,38.57
2023-04-01T15:34:44.333Z,38.46
2023-04-01T15:38:12.223Z,39.07
2023-04-01T15:41:26.928Z,38.91
2023-04-01T15:44:53.298Z,39.94
2023-04-01T15:47:58.982Z,40.05
2023-04-01T15:51:32.341Z,40.23
2023-04-01T15:55:07.974Z,39.65
2023-04-01T15:58:38.640Z,39.27
2023-04-01T16:02:09.281Z,40.05
2023-04-01T16:05:51.238Z,40.74
2023-04-01T16:09:32.215Z,40.18
2023-04-01T16:12:48.473Z,41.54
2023-04-01T16:16:29.231Z,40.90
2023-04-01T16:19:55.784Z,40.99
2023-04-01T16:23:49.504Z,41.46
2023-04-01T16:27:04.995Z,42.84
2023-04-01T16:30:36.329Z,43.44
2023-04-01T16:33:50.962Z,43.25
2023-04-01T16:37:15.887Z,41.85
2023-04-01T16:40:27.011Z,42.73
2023-04-01T16:43:45.000Z,43.15
2023-04-01T16:46:52.997Z,43.69
2023-04-01T16:50:06.586Z,44.91
2023-04-01T16:53:14.016Z,43.93
2023-04-01T16:56:26.207Z,44.04
2023-04-01T16:59:41.834Z,44.74
2023-04-01T17:02:53.724Z,46.06
2023-04-01T17:06:09.088Z,45.60
2023-04-01T17:09:21.794Z,46.69
2023-04-01T17:12:40.071Z,46.83
2023-04-01T17:16:15.962Z,46.88
2023-04-01T17:19:37.611Z,46.96
2023-04-01T17:23:06.539Z,48.56
2023-04-01T17:26:18.334Z,49.05
2023-04-01T17:29:43.394Z,48.72
2023-04-01T17:33:07.942Z,50.02
2023-04-01T17:36:53.723Z,51.25
2023-04-01T17:39:59.956Z,51.62
2023-04-01T17:43:39.896Z,52.41
2023-04-01T17:46:46.485Z,52.33
2023-04-01T17:50:27.850Z,52.14
2023-04-01T17:54:00.799Z,53.42
2023-04-01T17:57:28.996Z,54.29
2023-04-01T18:00:54.232Z,54.57
2023-04-01T18:04:06.657Z,54.72
2023-04-01T18:07:28.661Z,54.06
2023-04-01T18:10:50.209Z,54.78
2023-04-01T18:14:39.272Z,54.69
2023-04-01T18:18:00.437Z,55.58
2023-04-01T18:21:37.809Z,55.49
2023-04-01T18:25:03.325Z,56.11
2023-04-01T18:28:15.486Z,55.78
2023-04-01T18:31:24.044Z,57.18
2023-04-01T18:34:53.481Z,55.68
2023-04-01T18:38:21.398Z,56.00
2023-04-01T18:41:42.148Z,57.06
2023-04-01T18:44:48.938Z,56.28
2023-04-01T18:48:12.160Z,57.09
2023-04-01T18:51:43.044Z,56.14
2023-04-01T18:55:04.254Z,54.85
2023-04-01T18:58:55.056Z,54.39
2023-04-01T19:02:18.553Z,54.82
2023-04-01T19:05:36.630Z,52.46
2023-04-01T19:08:42.069Z,53.17
2023-04-01T19:11:52.589Z,53.16
2023-04-01T19:15:28.889Z,54.03
2023-04-01T19:18:55.930Z,52.19
2023-04-01T19:22:15.286Z,52.72
2023-04-01T19:25:29.367Z,53.23
2023-04-01T19:28:50.311Z,54.25
2023-04-01T19:32:34.781Z,53.37
2023-04-01T19:39:50.184Z,54.79
2023-04-01T19:43:02.013Z,55.05
2023-04-01T19:46:21.452Z,55.14
2023-04-01T19:49:51.934Z,54.40
2023-04-01T19:53:00.533Z,55.44
2023-04-01T19:56:18.707Z,55.12
2023-04-01T19:59:53.060Z,54.89
2023-04-01T20:03:38.464Z,55.73
2023-04-01T20:06:44.592Z,57.18
2023-04-01T20:10:11.003Z,57.09
2023-04-01T20:13:30.424Z,56.66
2023-04-01T20:17:23.362Z,56.33
2023-04-01T20:20:29.804Z,57.26
2023-04-01T20:23:48.900Z,56.68
2023-04-01T20:27:11.795Z,56.00
2023-04-01T20:30:46.445Z,57.04
2023-04-01T20:34:14.596Z,56.54
2023-04-01T20:37:46.269Z,56.94
2023-04-01T20:41:04.037Z,56.14
2023-04-01T20:44:32.120Z,55.93
2023-04-01T20:47:54.455Z,55.19
2023-04-01T20:51:25.955Z,54.99
2023-04-01T20:54:57.664Z,54.20
2023-04-01T20:58:19.818Z,54.61
2023-04-01T21:01:46.173Z,54.71
2023-04-01T21:05:01.921Z,54.43
2023-04-01T21:08:15.156Z,54.89
2023-04-01T21:12:06.298Z,54.54
2023-04-01T21:15:28.537Z,55.58
2023-04-01T21:18:52.728Z,55.45
2023-04-01T21:22:20.631Z,56.21
2023-04-01T21:25:30.664Z,55.88
2023-04-01T21:28:42.606Z,56.03
2023-04-01T21:32:11.583Z,56.05
2023-04-01T21:35:29.758Z,56.43
2023-04-01T21:38:35.855Z,56.57
2023-04-01T21:42:06.562Z,56.58
2023-04-01T21:45:36.188Z,57.07
2023-04-01T21:48:45.959Z,56.88
2023-04-01T21:52:20.702Z,57.05
2023-04-01T21:56:01.403Z,57.55
2023-04-01T21:59:16.513Z,58.04
2023-04-01T22:02:26.079Z,57.69
2023-04-01T22:05:36.933Z,57.77
2023-04-01T22:08:45.329Z,57.47
2023-04-01T22:12:13.018Z,57.77
2023-04-01T22:15:50.852Z,58.10
2023-04-01T22:19:15.380Z,58.32
2023-04-01T22:22:40.895Z,57.94
2023-04-01T22:26:03.189Z,58.27
2023-04-01T22:29:32.823Z,58.65
2023-04-01T22:32:51.921Z,58.82
2023-04-01T22:36:33.422Z,59.17
2023-04-01T22:40:16.723Z,58.81
2023-04-01T22:43:36.104Z,58.95
2023-04-01T22:46:58.454Z,59.32
2023-04-01T22:50:21.641Z,59.76
2023-04-01T22:53:39.290Z,59.69
2023-04-01T22:56:49.898Z,59.93
2023-04-01T23:00:00.598Z,60.61
2023-04-01T23:03:24.810Z,59.57
2023-04-01T23:06:34.292Z,60.30
2023-04-01T23:09:38.562Z,60.41
2023-04-01T23:12:42.660Z,60.57
2023-04-01T23:15:47.478Z,60.27
2023-04-01T23:18:59.239Z,61.20
2023-04-01T23:22:31.946Z,61.22
2023-04-01T23:25:46.140Z,60.99
2023-04-01T23:28:55.659Z,61.32
2023-04-01T23:32:02.995Z,61.82
2023-04-01T23:35:25.232Z,61.11
2023-04-01T23:38:28.805Z,61.00
2023-04-01T23:41:34.110Z,61.87
2023-04-01T23:44:38.480Z,62.27
2023-04-01T23:47:42.323Z,61.41
2023-04-01T23:50:47.215Z,61.71
2023-04-01T23:54:02.498Z,62.14
2023-04-01T23:57:12.707Z,61.64
